Vejrstation Sortsø Strand
Vejrstation Sortsø Strands historiske vejrdata
 
Daily Summary for October 16, 2021 Units:  Metric    English   Both
Daily Weekly Monthly Yearly Custom
  Current: High: Low: Average:
Temperature: 7.9 °C 12.5 °C 6.2 °C 9.7 °C
Dew Point: 5.6 °C 7.8 °C 3.3 °C 6.1 °C
Humidity: 85% 85% 72% 79%
Wind Speed: 8km/h 43km/h 0km/h 17.2km/h
Wind Gust: 1km/h 26km/h - -
WindSouth - - SW
Pressure: 1016.1 hPa 1017.1 hPa 1014.4 hPa -
Precipitation: 0.00 mm      
Historical Graphs
 
 
Tabular Data for October 16, 2021
Time Temperature Dew Point Pressure Wind Wind Speed Wind Gust Humidity Rainfall Rate (Hourly) solar
00:04 10.1 °C 6.4 °C 1014.5 hPa West 32 km/h 19 km/h 78% 0.00 mm 0.00 W/m2
00:09 10.0 °C 6.3 °C 1014.5 hPa West 31 km/h 19 km/h 78% 0.00 mm 0.00 W/m2
00:14 10.0 °C 6.3 °C 1014.6 hPa WSW 32 km/h 20 km/h 78% 0.00 mm 0.00 W/m2
00:19 10.0 °C 6.3 °C 1014.6 hPa West 32 km/h 19 km/h 78% 0.00 mm 0.00 W/m2
00:24 9.9 °C 6.3 °C 1014.6 hPa West 32 km/h 17 km/h 78% 0.00 mm 0.00 W/m2
00:29 9.9 °C 6.2 °C 1014.5 hPa West 26 km/h 16 km/h 78% 0.00 mm 0.00 W/m2
00:34 9.8 °C 6.2 °C 1014.5 hPa West 28 km/h 13 km/h 78% 0.00 mm 0.00 W/m2
00:39 9.8 °C 6.2 °C 1014.4 hPa West 21 km/h 15 km/h 78% 0.00 mm 0.00 W/m2
00:44 9.7 °C 6.1 °C 1014.5 hPa West 26 km/h 15 km/h 78% 0.00 mm 0.00 W/m2
00:49 9.7 °C 6.0 °C 1014.5 hPa West 24 km/h 17 km/h 78% 0.00 mm 0.00 W/m2
00:54 9.7 °C 5.9 °C 1014.5 hPa West 34 km/h 22 km/h 77% 0.00 mm 0.00 W/m2
00:59 9.8 °C 5.9 °C 1014.5 hPa West 37 km/h 21 km/h 77% 0.00 mm 0.00 W/m2
01:04 9.8 °C 5.7 °C 1014.6 hPa West 42 km/h 19 km/h 76% 0.00 mm 0.00 W/m2
01:09 9.8 °C 5.7 °C 1014.6 hPa West 43 km/h 20 km/h 76% 0.00 mm 0.00 W/m2
01:14 9.8 °C 6.0 °C 1014.7 hPa West 26 km/h 17 km/h 77% 0.00 mm 0.00 W/m2
01:19 9.8 °C 5.9 °C 1014.7 hPa West 27 km/h 19 km/h 77% 0.00 mm 0.00 W/m2
01:24 9.8 °C 5.9 °C 1014.7 hPa West 35 km/h 18 km/h 77% 0.00 mm 0.00 W/m2
01:29 9.8 °C 5.7 °C 1014.8 hPa West 35 km/h 18 km/h 76% 0.00 mm 0.00 W/m2
01:34 9.8 °C 5.9 °C 1014.7 hPa West 41 km/h 26 km/h 77% 0.00 mm 0.00 W/m2
01:39 9.8 °C 5.9 °C 1014.8 hPa West 35 km/h 21 km/h 77% 0.00 mm 0.00 W/m2
01:44 9.8 °C 5.7 °C 1015.0 hPa West 28 km/h 19 km/h 76% 0.00 mm 0.00 W/m2
01:49 9.8 °C 5.8 °C 1015.0 hPa WSW 30 km/h 19 km/h 76% 0.00 mm 0.00 W/m2
01:54 9.8 °C 5.7 °C 1015.0 hPa West 21 km/h 13 km/h 76% 0.00 mm 0.00 W/m2
01:59 9.7 °C 5.8 °C 1014.9 hPa West 24 km/h 17 km/h 77% 0.00 mm 0.00 W/m2
02:04 9.6 °C 5.7 °C 1014.9 hPa West 24 km/h 18 km/h 77% 0.00 mm 0.00 W/m2
02:09 9.6 °C 5.7 °C 1014.9 hPa WNW 21 km/h 18 km/h 77% 0.00 mm 0.00 W/m2
02:14 9.5 °C 5.7 °C 1015.0 hPa West 32 km/h 19 km/h 77% 0.00 mm 0.00 W/m2
02:19 9.5 °C 5.7 °C 1015.0 hPa West 32 km/h 18 km/h 77% 0.00 mm 0.00 W/m2
02:24 9.6 °C 5.7 °C 1014.9 hPa West 28 km/h 18 km/h 77% 0.00 mm 0.00 W/m2
02:29 9.6 °C 5.7 °C 1015.0 hPa West 32 km/h 19 km/h 77% 0.00 mm 0.00 W/m2
02:34 9.6 °C 5.7 °C 1015.1 hPa West 32 km/h 18 km/h 77% 0.00 mm 0.00 W/m2
02:39 9.6 °C 5.7 °C 1015.1 hPa West 32 km/h 19 km/h 77% 0.00 mm 0.00 W/m2
02:44 9.5 °C 5.5 °C 1015.0 hPa West 26 km/h 17 km/h 76% 0.00 mm 0.00 W/m2
02:49 9.5 °C 5.5 °C 1015.0 hPa West 32 km/h 18 km/h 76% 0.00 mm 0.00 W/m2
02:54 9.5 °C 5.7 °C 1015.1 hPa West 24 km/h 18 km/h 77% 0.00 mm 0.00 W/m2
02:59 9.6 °C 5.7 °C 1015.1 hPa West 30 km/h 19 km/h 77% 0.00 mm 0.00 W/m2
03:04 9.6 °C 5.6 °C 1015.1 hPa West 34 km/h 20 km/h 76% 0.00 mm 0.00 W/m2
03:09 9.6 °C 5.6 °C 1015.1 hPa West 28 km/h 19 km/h 76% 0.00 mm 0.00 W/m2
03:14 9.6 °C 5.8 °C 1015.1 hPa West 28 km/h 17 km/h 77% 0.00 mm 0.00 W/m2
03:19 9.6 °C 5.8 °C 1015.1 hPa West 34 km/h 22 km/h 77% 0.00 mm 0.00 W/m2
03:24 9.6 °C 5.6 °C 1015.1 hPa West 32 km/h 21 km/h 76% 0.00 mm 0.00 W/m2
03:29 9.7 °C 5.8 °C 1015.2 hPa West 32 km/h 21 km/h 77% 0.00 mm 0.00 W/m2
03:34 9.7 °C 5.8 °C 1015.2 hPa West 23 km/h 14 km/h 77% 0.00 mm 0.00 W/m2
03:39 9.6 °C 5.8 °C 1015.3 hPa WSW 32 km/h 17 km/h 77% 0.00 mm 0.00 W/m2
03:44 9.6 °C 5.7 °C 1015.3 hPa West 21 km/h 14 km/h 77% 0.00 mm 0.00 W/m2
03:49 9.6 °C 5.7 °C 1015.3 hPa West 27 km/h 19 km/h 77% 0.00 mm 0.00 W/m2
03:54 9.6 °C 5.8 °C 1015.3 hPa West 34 km/h 22 km/h 77% 0.00 mm 0.00 W/m2
03:59 9.6 °C 5.8 °C 1015.2 hPa West 32 km/h 19 km/h 77% 0.00 mm 0.00 W/m2
04:04 9.6 °C 5.6 °C 1015.3 hPa West 34 km/h 20 km/h 76% 0.00 mm 0.00 W/m2
04:09 9.6 °C 5.8 °C 1015.3 hPa West 28 km/h 15 km/h 77% 0.00 mm 0.00 W/m2
04:14 9.6 °C 5.8 °C 1015.3 hPa WSW 28 km/h 18 km/h 77% 0.00 mm 0.00 W/m2
04:19 9.6 °C 5.8 °C 1015.3 hPa West 31 km/h 19 km/h 77% 0.00 mm 0.00 W/m2
04:24 9.6 °C 5.8 °C 1015.3 hPa WSW 32 km/h 19 km/h 77% 0.00 mm 0.00 W/m2
04:29 9.6 °C 5.7 °C 1015.2 hPa West 28 km/h 17 km/h 77% 0.00 mm 0.00 W/m2
04:34 9.6 °C 5.7 °C 1015.3 hPa West 30 km/h 19 km/h 77% 0.00 mm 0.00 W/m2
04:39 9.6 °C 5.6 °C 1015.3 hPa West 28 km/h 19 km/h 76% 0.00 mm 0.00 W/m2
04:44 9.6 °C 5.8 °C 1015.4 hPa West 24 km/h 13 km/h 77% 0.00 mm 0.00 W/m2
04:49 9.6 °C 5.8 °C 1015.4 hPa WSW 26 km/h 17 km/h 77% 0.00 mm 0.00 W/m2
04:54 9.6 °C 5.6 °C 1015.5 hPa West 30 km/h 17 km/h 76% 0.00 mm 0.00 W/m2
04:59 9.7 °C 5.6 °C 1015.5 hPa West 30 km/h 21 km/h 76% 0.00 mm 0.00 W/m2
05:04 9.7 °C 5.6 °C 1015.5 hPa West 28 km/h 18 km/h 76% 0.00 mm 0.00 W/m2
05:09 9.6 °C 5.6 °C 1015.5 hPa West 24 km/h 17 km/h 76% 0.00 mm 0.00 W/m2
05:14 9.6 °C 5.6 °C 1015.5 hPa WSW 26 km/h 16 km/h 76% 0.00 mm 0.00 W/m2
05:19 9.6 °C 5.6 °C 1015.7 hPa West 26 km/h 15 km/h 76% 0.00 mm 0.00 W/m2
05:24 9.4 °C 5.2 °C 1015.7 hPa West 30 km/h 15 km/h 75% 0.00 mm 0.00 W/m2
05:29 9.4 °C 5.2 °C 1015.7 hPa WSW 19 km/h 11 km/h 75% 0.00 mm 0.00 W/m2
05:34 9.3 °C 5.3 °C 1015.6 hPa West 23 km/h 13 km/h 76% 0.00 mm 0.00 W/m2
05:39 9.3 °C 5.1 °C 1015.6 hPa West 26 km/h 15 km/h 75% 0.00 mm 0.00 W/m2
05:44 9.3 °C 5.1 °C 1015.7 hPa West 26 km/h 13 km/h 75% 0.00 mm 0.00 W/m2
05:49 9.3 °C 5.1 °C 1015.7 hPa West 21 km/h 13 km/h 75% 0.00 mm 0.00 W/m2
05:54 9.3 °C 5.1 °C 1015.7 hPa West 23 km/h 13 km/h 75% 0.00 mm 0.00 W/m2
05:59 9.3 °C 5.1 °C 1015.7 hPa West 17 km/h 11 km/h 75% 0.00 mm 0.00 W/m2
06:04 9.2 °C 5.0 °C 1015.7 hPa West 19 km/h 9 km/h 75% 0.00 mm 0.00 W/m2
06:09 9.2 °C 4.9 °C 1015.7 hPa West 19 km/h 8 km/h 75% 0.00 mm 0.00 W/m2
06:14 9.2 °C 4.9 °C 1015.7 hPa WNW 21 km/h 11 km/h 75% 0.00 mm 0.00 W/m2
06:19 9.1 °C 4.9 °C 1015.8 hPa WSW 20 km/h 12 km/h 75% 0.00 mm 0.00 W/m2
06:24 9.1 °C 4.8 °C 1015.8 hPa West 11 km/h 8 km/h 75% 0.00 mm 0.00 W/m2
06:29 9.1 °C 4.8 °C 1015.8 hPa SSW 9 km/h 1 km/h 75% 0.00 mm 0.00 W/m2
06:34 9.0 °C 5.0 °C 1015.8 hPa WSW 10 km/h 5 km/h 76% 0.00 mm 0.00 W/m2
06:39 8.9 °C 4.9 °C 1015.8 hPa WSW 11 km/h 3 km/h 76% 0.00 mm 0.00 W/m2
06:44 8.8 °C 5.0 °C 1015.7 hPa SW 15 km/h 7 km/h 77% 0.00 mm 0.00 W/m2
06:49 8.8 °C 4.9 °C 1015.7 hPa SW 8 km/h 2 km/h 77% 0.00 mm 0.00 W/m2
06:54 8.7 °C 4.9 °C 1015.7 hPa Calm     77% 0.00 mm 0.00 W/m2
06:59 8.6 °C 4.9 °C 1015.8 hPa Calm     78% 0.00 mm 0.00 W/m2
07:04 8.5 °C 4.9 °C 1015.8 hPa SW 8 km/h 3 km/h 78% 0.00 mm 0.00 W/m2
07:09 8.5 °C 5.1 °C 1015.7 hPa Calm     79% 0.00 mm 0.00 W/m2
07:14 8.4 °C 4.8 °C 1015.8 hPa Calm     78% 0.00 mm 0.00 W/m2
07:19 8.3 °C 4.7 °C 1015.8 hPa Calm     79% 0.00 mm 0.00 W/m2
07:24 8.2 °C 4.7 °C 1015.8 hPa Calm     79% 0.00 mm 0.00 W/m2
07:29 7.9 °C 4.6 °C 1015.8 hPa Calm     80% 0.00 mm 0.00 W/m2
07:34 7.6 °C 4.3 °C 1015.8 hPa Calm     80% 0.00 mm 0.00 W/m2
07:39 7.1 °C 3.8 °C 1015.7 hPa Calm     80% 0.00 mm 0.00 W/m2
07:44 6.6 °C 3.3 °C 1015.7 hPa Calm     80% 0.00 mm 0.00 W/m2
07:49 6.3 °C 3.3 °C 1015.8 hPa Calm     82% 0.00 mm 0.00 W/m2
07:54 6.2 °C 3.5 °C 1015.8 hPa Calm     83% 0.00 mm 0.00 W/m2
07:59 6.2 °C 3.5 °C 1015.9 hPa Calm     83% 0.00 mm 0.00 W/m2
08:04 6.2 °C 3.6 °C 1015.9 hPa Calm     83% 0.00 mm 0.00 W/m2
08:09 6.3 °C 3.8 °C 1015.8 hPa Calm     84% 0.00 mm 0.00 W/m2
08:14 6.3 °C 3.8 °C 1015.9 hPa Calm     84% 0.00 mm 0.00 W/m2
08:19 6.4 °C 3.9 °C 1016.0 hPa Calm     84% 0.00 mm 0.00 W/m2
08:24 6.4 °C 3.9 °C 1016.0 hPa Calm     84% 0.00 mm 0.00 W/m2
08:29 6.5 °C 4.0 °C 1016.0 hPa Calm     84% 0.00 mm 0.00 W/m2
08:34 6.6 °C 4.2 °C 1016.0 hPa Calm     85% 0.00 mm 0.00 W/m2
08:39 6.8 °C 4.4 °C 1016.0 hPa Calm     85% 0.00 mm 0.00 W/m2
08:44 7.1 °C 4.7 °C 1016.1 hPa SSW 10 km/h 3 km/h 85% 0.00 mm 0.00 W/m2
08:49 7.4 °C 5.1 °C 1016.1 hPa SSW 15 km/h 3 km/h 85% 0.00 mm 0.00 W/m2
08:54 7.7 °C 5.3 °C 1016.2 hPa SSW 6 km/h 2 km/h 85% 0.00 mm 0.00 W/m2
08:59 8.0 °C 5.6 °C 1016.3 hPa SSW 6 km/h 2 km/h 85% 0.00 mm 0.00 W/m2
09:04 8.2 °C 5.7 °C 1016.3 hPa South 10 km/h 5 km/h 85% 0.00 mm 0.00 W/m2
09:09 8.4 °C 5.8 °C 1016.3 hPa South 6 km/h 2 km/h 84% 0.00 mm 0.00 W/m2
09:14 8.7 °C 6.1 °C 1016.4 hPa South 8 km/h 4 km/h 84% 0.00 mm 0.00 W/m2
09:19 8.9 °C 6.3 °C 1016.4 hPa South 6 km/h 2 km/h 84% 0.00 mm 0.00 W/m2
09:24 9.0 °C 6.3 °C 1016.4 hPa South 15 km/h 7 km/h 83% 0.00 mm 0.00 W/m2
09:29 9.1 °C 6.4 °C 1016.5 hPa South 10 km/h 4 km/h 83% 0.00 mm 0.00 W/m2
09:34 9.1 °C 6.2 °C 1016.5 hPa South 6 km/h 3 km/h 82% 0.00 mm 0.00 W/m2
09:39 9.2 °C 6.3 °C 1016.6 hPa South 10 km/h 4 km/h 82% 0.00 mm 0.00 W/m2
09:44 9.3 °C 6.4 °C 1016.5 hPa South 15 km/h 7 km/h 82% 0.00 mm 0.00 W/m2
09:49 9.4 °C 6.5 °C 1016.6 hPa SSW 11 km/h 4 km/h 82% 0.00 mm 0.00 W/m2
09:54 9.6 °C 6.6 °C 1016.6 hPa SSW 19 km/h 10 km/h 82% 0.00 mm 0.00 W/m2
09:59 9.7 °C 6.7 °C 1016.6 hPa SSW 17 km/h 7 km/h 82% 0.00 mm 0.00 W/m2
10:04 9.8 °C 6.7 °C 1016.6 hPa SSW 15 km/h 5 km/h 82% 0.00 mm 0.00 W/m2
10:09 9.9 °C 6.8 °C 1016.7 hPa SSW 21 km/h 7 km/h 81% 0.00 mm 0.00 W/m2
10:14 10.0 °C 6.9 °C 1016.7 hPa SSW 20 km/h 6 km/h 81% 0.00 mm 0.00 W/m2
10:19 10.1 °C 6.9 °C 1016.7 hPa SSW 19 km/h 7 km/h 81% 0.00 mm 0.00 W/m2
10:24 10.1 °C 6.8 °C 1016.8 hPa SW 21 km/h 14 km/h 80% 0.00 mm 0.00 W/m2
10:29 10.2 °C 6.9 °C 1016.8 hPa SSW 20 km/h 4 km/h 80% 0.00 mm 0.00 W/m2
10:34 10.2 °C 7.1 °C 1016.8 hPa SSW 35 km/h 10 km/h 81% 0.00 mm 0.00 W/m2
10:39 10.3 °C 7.1 °C 1016.8 hPa SW 35 km/h 13 km/h 81% 0.00 mm 0.00 W/m2
10:44 10.3 °C 7.1 °C 1016.8 hPa SSW 16 km/h 5 km/h 80% 0.00 mm 0.00 W/m2
10:49 10.4 °C 7.1 °C 1016.9 hPa SSW 19 km/h 14 km/h 80% 0.00 mm 0.00 W/m2
10:54 10.6 °C 7.2 °C 1016.8 hPa SW 23 km/h 7 km/h 80% 0.00 mm 0.00 W/m2
10:59 10.6 °C 7.3 °C 1016.8 hPa SSW 24 km/h 8 km/h 80% 0.00 mm 0.00 W/m2
11:04 10.7 °C 7.2 °C 1016.8 hPa SW 20 km/h 10 km/h 79% 0.00 mm 0.00 W/m2
11:09 10.7 °C 7.2 °C 1016.8 hPa SW 19 km/h 13 km/h 79% 0.00 mm 0.00 W/m2
11:14 10.7 °C 7.0 °C 1016.8 hPa WSW 21 km/h 7 km/h 78% 0.00 mm 0.00 W/m2
11:19 10.9 °C 7.2 °C 1016.8 hPa SW 23 km/h 13 km/h 78% 0.00 mm 0.00 W/m2
11:24 11.2 °C 7.4 °C 1016.8 hPa SW 26 km/h 14 km/h 78% 0.00 mm 0.00 W/m2
11:29 11.3 °C 7.4 °C 1016.8 hPa WSW 28 km/h 15 km/h 77% 0.00 mm 0.00 W/m2
11:34 11.6 °C 7.5 °C 1016.8 hPa SW 21 km/h 14 km/h 76% 0.00 mm 0.00 W/m2
11:39 11.6 °C 7.3 °C 1016.8 hPa SW 20 km/h 12 km/h 75% 0.00 mm 0.00 W/m2
11:44 11.6 °C 7.1 °C 1016.9 hPa SW 26 km/h 12 km/h 74% 0.00 mm 0.00 W/m2
11:49 11.6 °C 7.1 °C 1016.9 hPa SW 23 km/h 15 km/h 74% 0.00 mm 0.00 W/m2
11:54 11.6 °C 7.1 °C 1016.8 hPa SW 22 km/h 15 km/h 74% 0.00 mm 0.00 W/m2
11:59 11.7 °C 6.9 °C 1016.8 hPa WSW 21 km/h 9 km/h 73% 0.00 mm 0.00 W/m2
12:04 11.9 °C 7.2 °C 1016.9 hPa SW 24 km/h 14 km/h 73% 0.00 mm 0.00 W/m2
12:09 11.9 °C 7.3 °C 1017.0 hPa SW 21 km/h 11 km/h 73% 0.00 mm 0.00 W/m2
12:14 12.0 °C 7.3 °C 1016.9 hPa SSW 27 km/h 16 km/h 73% 0.00 mm 0.00 W/m2
12:19 11.9 °C 7.3 °C 1016.9 hPa SW 28 km/h 14 km/h 73% 0.00 mm 0.00 W/m2
12:24 11.9 °C 7.4 °C 1016.9 hPa SW 17 km/h 5 km/h 74% 0.00 mm 0.00 W/m2
12:29 12.1 °C 7.4 °C 1016.9 hPa SW 21 km/h 14 km/h 74% 0.00 mm 0.00 W/m2
12:34 12.1 °C 7.4 °C 1017.0 hPa WSW 23 km/h 12 km/h 73% 0.00 mm 0.00 W/m2
12:39 12.2 °C 7.5 °C 1017.0 hPa SW 19 km/h 8 km/h 73% 0.00 mm 0.00 W/m2
12:44 12.2 °C 7.5 °C 1017.0 hPa SW 26 km/h 15 km/h 73% 0.00 mm 0.00 W/m2
12:49 12.2 °C 7.3 °C 1017.0 hPa SW 28 km/h 16 km/h 72% 0.00 mm 0.00 W/m2
12:54 12.1 °C 7.4 °C 1017.0 hPa SW 24 km/h 18 km/h 73% 0.00 mm 0.00 W/m2
12:59 12.2 °C 7.4 °C 1017.0 hPa WSW 24 km/h 13 km/h 73% 0.00 mm 0.00 W/m2
13:04 12.1 °C 7.2 °C 1017.1 hPa WSW 26 km/h 14 km/h 72% 0.00 mm 0.00 W/m2
13:09 12.3 °C 7.6 °C 1017.1 hPa SW 32 km/h 13 km/h 73% 0.00 mm 0.00 W/m2
13:14 12.4 °C 7.6 °C 1017.0 hPa SW 28 km/h 16 km/h 73% 0.00 mm 0.00 W/m2
13:19 12.3 °C 7.4 °C 1017.0 hPa SW 26 km/h 19 km/h 72% 0.00 mm 0.00 W/m2
13:24 12.4 °C 7.5 °C 1017.0 hPa SW 20 km/h 13 km/h 72% 0.00 mm 0.00 W/m2
13:29 12.5 °C 7.8 °C 1017.0 hPa SW 30 km/h 19 km/h 73% 0.00 mm 0.00 W/m2
13:34 12.5 °C 7.8 °C 1017.0 hPa SW 29 km/h 18 km/h 73% 0.00 mm 0.00 W/m2
13:39 12.4 °C 7.7 °C 1017.0 hPa SSW 30 km/h 13 km/h 73% 0.00 mm 0.00 W/m2
13:44 12.4 °C 7.7 °C 1017.0 hPa SW 26 km/h 15 km/h 73% 0.00 mm 0.00 W/m2
13:49 12.3 °C 7.6 °C 1017.0 hPa SW 27 km/h 17 km/h 73% 0.00 mm 0.00 W/m2
13:54 11.9 °C 7.4 °C 1017.0 hPa SW 24 km/h 14 km/h 74% 0.00 mm 0.00 W/m2
13:59 11.7 °C 7.4 °C 1017.0 hPa SW 28 km/h 18 km/h 75% 0.00 mm 0.00 W/m2
14:04 11.6 °C 7.3 °C 1017.1 hPa SW 27 km/h 14 km/h 75% 0.00 mm 0.00 W/m2
14:09 11.2 °C 7.1 °C 1017.0 hPa SSW 20 km/h 11 km/h 76% 0.00 mm 0.00 W/m2
14:14 11.2 °C 7.3 °C 1017.0 hPa WSW 24 km/h 15 km/h 77% 0.00 mm 0.00 W/m2
14:19 11.1 °C 7.2 °C 1017.0 hPa WNW 26 km/h 16 km/h 77% 0.00 mm 0.00 W/m2
14:24 10.9 °C 7.1 °C 1017.0 hPa WSW 26 km/h 15 km/h 78% 0.00 mm 0.00 W/m2
14:29 10.7 °C 7.0 °C 1017.0 hPa West 26 km/h 14 km/h 78% 0.00 mm 0.00 W/m2
14:34 10.7 °C 7.2 °C 1016.9 hPa WSW 24 km/h 14 km/h 79% 0.00 mm 0.00 W/m2
14:39 10.7 °C 7.2 °C 1017.0 hPa West 24 km/h 16 km/h 79% 0.00 mm 0.00 W/m2
14:44 10.7 °C 7.2 °C 1016.9 hPa West 19 km/h 14 km/h 79% 0.00 mm 0.00 W/m2
14:49 10.4 °C 6.9 °C 1016.8 hPa WSW 23 km/h 13 km/h 79% 0.00 mm 0.00 W/m2
14:54 10.3 °C 6.8 °C 1016.8 hPa WSW 17 km/h 11 km/h 79% 0.00 mm 0.00 W/m2
14:59 10.2 °C 6.7 °C 1016.7 hPa SW 19 km/h 10 km/h 79% 0.00 mm 0.00 W/m2
15:04 10.3 °C 6.8 °C 1016.7 hPa SW 17 km/h 8 km/h 79% 0.00 mm 0.00 W/m2
15:09 10.3 °C 6.8 °C 1016.6 hPa SSW 17 km/h 5 km/h 79% 0.00 mm 0.00 W/m2
15:14 10.4 °C 6.9 °C 1016.6 hPa Calm     79% 0.00 mm 0.00 W/m2
15:19 10.4 °C 7.2 °C 1016.6 hPa Calm     80% 0.00 mm 0.00 W/m2
15:24 10.4 °C 7.2 °C 1016.6 hPa Calm     80% 0.00 mm 0.00 W/m2
15:29 10.5 °C 7.2 °C 1016.6 hPa Calm     80% 0.00 mm 0.00 W/m2
15:34 10.6 °C 7.3 °C 1016.5 hPa Calm     80% 0.00 mm 0.00 W/m2
15:39 10.7 °C 7.3 °C 1016.5 hPa SSW 13 km/h 3 km/h 80% 0.00 mm 0.00 W/m2
15:44 10.8 °C 7.3 °C 1016.5 hPa SSW 11 km/h 3 km/h 79% 0.00 mm 0.00 W/m2
15:49 10.8 °C 7.3 °C 1016.5 hPa SSW 21 km/h 9 km/h 79% 0.00 mm 0.00 W/m2
15:54 10.8 °C 7.2 °C 1016.4 hPa SSW 23 km/h 10 km/h 78% 0.00 mm 0.00 W/m2
15:59 10.8 °C 7.2 °C 1016.4 hPa SSW 26 km/h 8 km/h 78% 0.00 mm 0.00 W/m2
16:04 10.8 °C 7.2 °C 1016.4 hPa SSW 19 km/h 11 km/h 78% 0.00 mm 0.00 W/m2
16:09 10.8 °C 7.2 °C 1016.3 hPa SSW 19 km/h 8 km/h 78% 0.00 mm 0.00 W/m2
16:14 10.9 °C 7.2 °C 1016.3 hPa SSW 23 km/h 7 km/h 78% 0.00 mm 0.00 W/m2
16:19 10.9 °C 7.2 °C 1016.3 hPa SSW 2 km/h   78% 0.00 mm 0.00 W/m2
16:24 10.9 °C 7.2 °C 1016.3 hPa SSW 19 km/h 8 km/h 78% 0.00 mm 0.00 W/m2
16:29 10.9 °C 7.0 °C 1016.3 hPa SSW 19 km/h 8 km/h 77% 0.00 mm 0.00 W/m2
16:34 10.9 °C 7.0 °C 1016.4 hPa SW 19 km/h 5 km/h 77% 0.00 mm 0.00 W/m2
16:39 10.9 °C 7.2 °C 1016.4 hPa SSW 10 km/h 2 km/h 78% 0.00 mm 0.00 W/m2
16:44 10.8 °C 7.2 °C 1016.4 hPa SSW 17 km/h 4 km/h 78% 0.00 mm 0.00 W/m2
16:49 10.8 °C 7.2 °C 1016.4 hPa SW 19 km/h 3 km/h 78% 0.00 mm 0.00 W/m2
16:54 10.8 °C 7.1 °C 1016.4 hPa SW 17 km/h 4 km/h 78% 0.00 mm 0.00 W/m2
16:59 10.7 °C 7.1 °C 1016.3 hPa SSW 19 km/h 6 km/h 78% 0.00 mm 0.00 W/m2
17:04 10.7 °C 7.0 °C 1016.4 hPa SW 21 km/h 10 km/h 78% 0.00 mm 0.00 W/m2
17:09 10.6 °C 6.9 °C 1016.3 hPa WSW 17 km/h 12 km/h 78% 0.00 mm 0.00 W/m2
17:14 10.6 °C 6.9 °C 1016.3 hPa WSW 17 km/h 6 km/h 78% 0.00 mm 0.00 W/m2
17:19 10.6 °C 6.9 °C 1016.3 hPa SW 17 km/h 6 km/h 78% 0.00 mm 0.00 W/m2
17:24 10.6 °C 6.9 °C 1016.3 hPa SW 15 km/h 7 km/h 78% 0.00 mm 0.00 W/m2
17:29 10.6 °C 6.7 °C 1016.4 hPa SW 17 km/h 2 km/h 77% 0.00 mm 0.00 W/m2
17:34 10.6 °C 6.9 °C 1016.4 hPa SW 19 km/h 4 km/h 78% 0.00 mm 0.00 W/m2
17:39 10.6 °C 6.9 °C 1016.6 hPa WSW 23 km/h 12 km/h 78% 0.00 mm 0.00 W/m2
17:44 10.6 °C 7.0 °C 1016.6 hPa WSW 19 km/h 10 km/h 79% 0.00 mm 0.00 W/m2
17:49 10.4 °C 7.0 °C 1016.5 hPa SSW 11 km/h 3 km/h 80% 0.00 mm 0.00 W/m2
17:54 10.3 °C 7.0 °C 1016.4 hPa SSW 11 km/h 3 km/h 80% 0.00 mm 0.00 W/m2
17:59 10.1 °C 6.8 °C 1016.5 hPa SSW 10 km/h 3 km/h 80% 0.00 mm 0.00 W/m2
18:04 9.9 °C 6.7 °C 1016.5 hPa SSW 9 km/h 3 km/h 80% 0.00 mm 0.00 W/m2
18:09 9.8 °C 6.6 °C 1016.5 hPa Calm     80% 0.00 mm 0.00 W/m2
18:14 9.8 °C 6.5 °C 1016.5 hPa SSW 3 km/h   80% 0.00 mm 0.00 W/m2
18:19 9.8 °C 6.5 °C 1016.6 hPa SSW 6 km/h 1 km/h 80% 0.00 mm 0.00 W/m2
18:24 9.8 °C 6.6 °C 1016.5 hPa WSW 17 km/h 6 km/h 80% 0.00 mm 0.00 W/m2
18:29 9.9 °C 6.6 °C 1016.5 hPa SSW 6 km/h 1 km/h 80% 0.00 mm 0.00 W/m2
18:34 10.0 °C 6.7 °C 1016.5 hPa South 6 km/h 2 km/h 80% 0.00 mm 0.00 W/m2
18:39 10.1 °C 6.8 °C 1016.4 hPa South 6 km/h 1 km/h 80% 0.00 mm 0.00 W/m2
18:44 10.1 °C 6.8 °C 1016.4 hPa South 6 km/h 1 km/h 80% 0.00 mm 0.00 W/m2
18:49 10.1 °C 6.8 °C 1016.3 hPa Calm     80% 0.00 mm 0.00 W/m2
18:54 10.1 °C 6.8 °C 1016.3 hPa South 3 km/h   80% 0.00 mm 0.00 W/m2
18:59 10.0 °C 6.7 °C 1016.3 hPa South 8 km/h 1 km/h 80% 0.00 mm 0.00 W/m2
19:04 9.9 °C 6.7 °C 1016.4 hPa South 6 km/h 1 km/h 80% 0.00 mm 0.00 W/m2
19:09 9.8 °C 6.5 °C 1016.4 hPa South 6 km/h 1 km/h 80% 0.00 mm 0.00 W/m2
19:14 9.7 °C 6.4 °C 1016.4 hPa South 18 km/h 6 km/h 80% 0.00 mm 0.00 W/m2
19:19 9.6 °C 6.3 °C 1016.4 hPa SSW 19 km/h 7 km/h 80% 0.00 mm 0.00 W/m2
19:24 9.6 °C 6.3 °C 1016.4 hPa SSW 15 km/h 4 km/h 80% 0.00 mm 0.00 W/m2
19:29 9.6 °C 6.4 °C 1016.5 hPa South 6 km/h 2 km/h 81% 0.00 mm 0.00 W/m2
19:34 9.6 °C 6.4 °C 1016.4 hPa South 8 km/h 2 km/h 81% 0.00 mm 0.00 W/m2
19:39 9.4 °C 6.3 °C 1016.5 hPa South 5 km/h 1 km/h 81% 0.00 mm 0.00 W/m2
19:44 9.4 °C 6.4 °C 1016.5 hPa South 8 km/h 1 km/h 82% 0.00 mm 0.00 W/m2
19:49 9.3 °C 6.4 °C 1016.5 hPa South 3 km/h   82% 0.00 mm 0.00 W/m2
19:54 9.2 °C 6.3 °C 1016.4 hPa South 8 km/h 2 km/h 82% 0.00 mm 0.00 W/m2
19:59 9.0 °C 5.9 °C 1016.3 hPa South 7 km/h 2 km/h 81% 0.00 mm 0.00 W/m2
20:04 8.9 °C 5.8 °C 1016.2 hPa South 2 km/h   81% 0.00 mm 0.00 W/m2
20:09 8.8 °C 5.5 °C 1016.3 hPa South 2 km/h   80% 0.00 mm 0.00 W/m2
20:14 8.7 °C 5.4 °C 1016.4 hPa South 4 km/h   80% 0.00 mm 0.00 W/m2
20:19 8.6 °C 5.6 °C 1016.3 hPa Calm     81% 0.00 mm 0.00 W/m2
20:24 8.6 °C 5.6 °C 1016.4 hPa Calm     81% 0.00 mm 0.00 W/m2
20:29 8.6 °C 5.6 °C 1016.3 hPa Calm     81% 0.00 mm 0.00 W/m2
20:34 8.7 °C 5.6 °C 1016.4 hPa South 8 km/h 2 km/h 81% 0.00 mm 0.00 W/m2
20:39 8.7 °C 5.7 °C 1016.4 hPa South 6 km/h 2 km/h 81% 0.00 mm 0.00 W/m2
20:44 8.7 °C 5.7 °C 1016.4 hPa South 2 km/h   81% 0.00 mm 0.00 W/m2
20:49 8.6 °C 5.6 °C 1016.3 hPa Calm     81% 0.00 mm 0.00 W/m2
20:54 8.5 °C 5.6 °C 1016.3 hPa Calm     82% 0.00 mm 0.00 W/m2
20:59 8.4 °C 5.5 °C 1016.4 hPa Calm     82% 0.00 mm 0.00 W/m2
21:04 8.3 °C 5.4 °C 1016.4 hPa Calm     82% 0.00 mm 0.00 W/m2
21:09 8.2 °C 5.3 °C 1016.3 hPa Calm     82% 0.00 mm 0.00 W/m2
21:14 8.1 °C 5.2 °C 1016.3 hPa South 2 km/h   82% 0.00 mm 0.00 W/m2
21:19 7.9 °C 5.2 °C 1016.3 hPa South 6 km/h 1 km/h 83% 0.00 mm 0.00 W/m2
21:24 7.9 °C 5.2 °C 1016.2 hPa South 8 km/h 1 km/h 83% 0.00 mm 0.00 W/m2
21:29 7.8 °C 5.1 °C 1016.2 hPa South 7 km/h 1 km/h 83% 0.00 mm 0.00 W/m2
21:34 7.8 °C 5.1 °C 1016.2 hPa South 6 km/h 1 km/h 83% 0.00 mm 0.00 W/m2
21:39 7.8 °C 5.1 °C 1016.2 hPa South 11 km/h 4 km/h 83% 0.00 mm 0.00 W/m2
21:44 7.8 °C 5.1 °C 1016.2 hPa South 15 km/h 3 km/h 83% 0.00 mm 0.00 W/m2
21:49 7.9 °C 5.2 °C 1016.2 hPa South 10 km/h 4 km/h 83% 0.00 mm 0.00 W/m2
21:54 8.0 °C 5.4 °C 1016.1 hPa South 8 km/h 2 km/h 84% 0.00 mm 0.00 W/m2
21:59 8.1 °C 5.6 °C 1016.0 hPa South 6 km/h 1 km/h 84% 0.00 mm 0.00 W/m2
22:04 8.1 °C 5.6 °C 1016.0 hPa South 8 km/h 2 km/h 84% 0.00 mm 0.00 W/m2
22:09 8.1 °C 5.6 °C 1016.1 hPa South 10 km/h 3 km/h 84% 0.00 mm 0.00 W/m2
22:14 8.1 °C 5.6 °C 1016.1 hPa South 9 km/h 2 km/h 84% 0.00 mm 0.00 W/m2
22:19 8.1 °C 5.5 °C 1016.2 hPa South 6 km/h 1 km/h 84% 0.00 mm 0.00 W/m2
22:24 7.9 °C 5.4 °C 1016.2 hPa South 8 km/h 2 km/h 84% 0.00 mm 0.00 W/m2
22:29 7.9 °C 5.3 °C 1016.1 hPa Calm     84% 0.00 mm 0.00 W/m2
22:34 7.8 °C 5.4 °C 1016.1 hPa South 10 km/h 3 km/h 85% 0.00 mm 0.00 W/m2
22:39 7.8 °C 5.4 °C 1016.1 hPa South 6 km/h 1 km/h 85% 0.00 mm 0.00 W/m2
22:44 7.8 °C 5.4 °C 1016.1 hPa South 6 km/h 1 km/h 85% 0.00 mm 0.00 W/m2
22:49 7.9 °C 5.6 °C 1016.1 hPa South 8 km/h 1 km/h 85% 0.00 mm 0.00 W/m2
Vejrstation Sortsø Strand
Compliments of Weather Underground - 2.25 mb

© 2006-2021 strandvejr.dk